createdAt,value
2022-09-09T00:05:00.618Z,101115.69
2022-09-09T00:10:01.564Z,101116.66
2022-09-09T00:15:02.214Z,101121.63
2022-09-09T00:20:02.763Z,101110.81
2022-09-09T00:25:03.609Z,101119.91
2022-09-09T00:30:13.521Z,101120.16
2022-09-09T00:35:16.381Z,101126.84
2022-09-09T00:40:19.405Z,101116.16
2022-09-09T00:45:25.699Z,101113.97
2022-09-09T00:50:36.403Z,101124.66
2022-09-09T00:55:39.324Z,101120.38
2022-09-09T01:00:41.382Z,101119.75
2022-09-09T01:05:42.851Z,101125.38
2022-09-09T01:10:46.716Z,101119.03
2022-09-09T01:15:46.958Z,101106.78
2022-09-09T01:20:48.012Z,101111.63
2022-09-09T01:26:02.745Z,101102.88
2022-09-09T01:31:01.442Z,101089.13
2022-09-09T01:36:06.807Z,101092.22
2022-09-09T01:41:09.447Z,101084.78
2022-09-09T01:46:26.379Z,101086.47
2022-09-09T01:51:23.929Z,101075.78
2022-09-09T01:56:27.068Z,101067.72
2022-09-09T02:01:30.036Z,101075.78
2022-09-09T02:06:31.604Z,101078.94
2022-09-09T02:11:37.645Z,101077.00
2022-09-09T02:16:57.556Z,101078.22
2022-09-09T02:22:02.177Z,101085.13
2022-09-09T02:27:01.027Z,101087.78
2022-09-09T02:31:59.561Z,101080.41
2022-09-09T02:37:03.050Z,101109.25
2022-09-09T02:42:00.166Z,101109.31
2022-09-09T02:47:11.090Z,101109.16
2022-09-09T02:52:09.787Z,101100.03
2022-09-09T02:57:11.542Z,101108.09
2022-09-09T03:02:11.976Z,101103.22
2022-09-09T03:07:09.956Z,101097.66
2022-09-09T03:12:07.574Z,101098.50
2022-09-09T03:17:05.619Z,101091.72
2022-09-09T03:22:07.448Z,101082.09
2022-09-09T03:27:07.582Z,101082.78
2022-09-09T03:32:06.998Z,101096.19
2022-09-09T03:37:03.886Z,101099.50
2022-09-09T03:42:19.790Z,101095.47
2022-09-09T03:47:20.130Z,101094.00
2022-09-09T03:52:19.397Z,101093.56
2022-09-09T03:57:22.733Z,101100.72
2022-09-09T04:02:21.889Z,101084.91
2022-09-09T04:07:18.610Z,101100.03
2022-09-09T04:12:17.052Z,101100.34
2022-09-09T04:17:17.745Z,101101.66
2022-09-09T04:22:14.613Z,101103.59
2022-09-09T04:27:11.293Z,101105.31
2022-09-09T04:32:08.101Z,101092.31
2022-09-09T04:37:05.732Z,101094.53
2022-09-09T04:42:02.566Z,101104.38
2022-09-09T04:46:59.407Z,101110.44
2022-09-09T04:51:56.705Z,101111.06
2022-09-09T04:56:55.353Z,101105.03
2022-09-09T05:01:52.205Z,101111.50
2022-09-09T05:06:49.234Z,101102.53
2022-09-09T05:11:46.930Z,101109.84
2022-09-09T05:17:16.804Z,101102.28
2022-09-09T05:22:14.597Z,101110.00
2022-09-09T05:27:15.586Z,101094.41
2022-09-09T05:32:15.587Z,101105.22
2022-09-09T05:37:15.002Z,101105.31
2022-09-09T05:42:15.536Z,101109.47
2022-09-09T05:47:12.346Z,101098.72
2022-09-09T05:52:10.292Z,101092.22
2022-09-09T05:57:07.961Z,101086.63
2022-09-09T06:02:05.135Z,101081.84
2022-09-09T06:07:06.606Z,101060.91
2022-09-09T06:12:03.793Z,101077.97
2022-09-09T06:17:08.429Z,101066.78
2022-09-09T06:22:06.637Z,101064.00
2022-09-09T06:27:07.141Z,101074.13
2022-09-09T06:32:08.990Z,101095.88
2022-09-09T06:37:07.109Z,101093.84
2022-09-09T06:42:09.974Z,101080.00
2022-09-09T06:47:25.870Z,101079.16
2022-09-09T06:52:26.738Z,101077.75
2022-09-09T06:57:41.080Z,101087.94
2022-09-09T07:02:48.764Z,101092.69
2022-09-09T07:07:46.996Z,101091.72
2022-09-09T07:12:52.208Z,101095.38
2022-09-09T07:17:50.704Z,101085.16
2022-09-09T07:22:48.426Z,101078.34
2022-09-09T07:27:45.364Z,101083.41
2022-09-09T07:32:43.186Z,101080.94
2022-09-09T07:37:41.705Z,101090.25
2022-09-09T07:42:38.940Z,101084.38
2022-09-09T07:47:36.126Z,101102.84
2022-09-09T07:52:35.970Z,101109.63
2022-09-09T07:57:36.575Z,101094.69
2022-09-09T08:02:34.683Z,101089.03
2022-09-09T08:07:32.046Z,101088.00
2022-09-09T08:12:31.159Z,101087.78
2022-09-09T08:17:30.566Z,101103.31
2022-09-09T08:22:30.724Z,101100.56
2022-09-09T08:27:27.565Z,101084.66
2022-09-09T08:32:26.888Z,101076.56
2022-09-09T08:37:24.990Z,101064.50
2022-09-09T08:42:30.468Z,101052.31
2022-09-09T08:47:35.633Z,101060.13
2022-09-09T08:52:40.478Z,101047.38
2022-09-09T08:57:37.736Z,101042.88
2022-09-09T09:02:40.539Z,101045.19
2022-09-09T09:07:51.738Z,101040.16
2022-09-09T09:12:54.137Z,101015.88
2022-09-09T09:17:53.191Z,101027.53
2022-09-09T09:22:56.602Z,101028.59
2022-09-09T09:27:59.321Z,100997.50
2022-09-09T09:33:00.000Z,101010.41
2022-09-09T09:43:20.707Z,101003.88
2022-09-09T09:48:18.901Z,100999.19
2022-09-09T09:53:22.239Z,100996.28
2022-09-09T09:58:20.895Z,100989.22
2022-09-09T10:03:23.585Z,101001.41
2022-09-09T10:08:23.132Z,101004.09
2022-09-09T10:13:22.117Z,100997.19
2022-09-09T10:18:39.874Z,101004.78
2022-09-09T10:23:47.376Z,101001.94
2022-09-09T10:29:00.234Z,100997.53
2022-09-09T10:34:01.498Z,100998.72
2022-09-09T10:39:00.732Z,100990.94
2022-09-09T10:44:05.546Z,100979.44
2022-09-09T10:49:08.241Z,100982.16
2022-09-09T10:54:15.765Z,100986.72
2022-09-09T10:59:14.675Z,100984.00
2022-09-09T11:04:16.963Z,100981.78
2022-09-09T11:09:17.505Z,100978.41
2022-09-09T11:14:20.989Z,100981.59
2022-09-09T11:19:22.355Z,100967.03
2022-09-09T11:24:25.568Z,100970.56
2022-09-09T11:29:31.607Z,100956.34
2022-09-09T11:39:48.543Z,100949.09
2022-09-09T11:44:45.587Z,100946.59
2022-09-09T11:49:43.209Z,100950.59
2022-09-09T11:54:47.754Z,100942.34
2022-09-09T11:59:52.522Z,100922.03
2022-09-09T12:04:55.186Z,100936.25
2022-09-09T12:09:56.984Z,100927.28
2022-09-09T12:15:18.296Z,100928.59
2022-09-09T12:20:16.512Z,100923.97
2022-09-09T12:25:23.176Z,100916.50
2022-09-09T12:30:22.064Z,100905.56
2022-09-09T12:35:23.428Z,100902.53
2022-09-09T12:40:22.738Z,100894.66
2022-09-09T12:45:20.833Z,100885.66
2022-09-09T12:50:21.967Z,100871.16
2022-09-09T12:55:20.085Z,100860.41
2022-09-09T13:00:19.512Z,100863.00
2022-09-09T13:05:17.848Z,100855.53
2022-09-09T13:10:21.466Z,100850.84
2022-09-09T13:15:29.156Z,100839.75
2022-09-09T13:20:26.036Z,100845.50
2022-09-09T13:25:26.118Z,100862.56
2022-09-09T13:30:24.211Z,100845.41
2022-09-09T13:35:24.767Z,100842.03
2022-09-09T13:40:24.121Z,100842.56
2022-09-09T13:45:21.808Z,100845.56
2022-09-09T13:50:21.755Z,100836.03
2022-09-09T13:55:19.491Z,100830.97
2022-09-09T14:00:16.620Z,100833.09
2022-09-09T14:05:13.395Z,100820.22
2022-09-09T14:10:10.071Z,100824.06
2022-09-09T14:15:08.905Z,100825.38
2022-09-09T14:20:09.655Z,100831.66
2022-09-09T14:25:06.916Z,100825.47
2022-09-09T14:30:05.020Z,100828.47
2022-09-09T14:35:02.607Z,100825.47
2022-09-09T14:40:00.237Z,100824.06
2022-09-09T14:44:57.199Z,100815.94
2022-09-09T14:49:53.894Z,100821.53
2022-09-09T14:54:51.637Z,100816.50
2022-09-09T14:59:50.815Z,100819.75
2022-09-09T15:04:50.267Z,100821.28
2022-09-09T15:09:49.134Z,100829.59
2022-09-09T15:14:46.624Z,100834.34
2022-09-09T15:19:43.403Z,100849.06
2022-09-09T15:24:42.545Z,100848.41
2022-09-09T15:29:39.345Z,100860.84
2022-09-09T15:34:36.809Z,100861.84
2022-09-09T15:39:38.165Z,100872.00
2022-09-09T15:44:42.880Z,100885.06
2022-09-09T15:49:41.213Z,100890.81
2022-09-09T15:54:39.249Z,100893.06
2022-09-09T15:59:36.028Z,100905.47
2022-09-09T16:04:34.429Z,100903.75
2022-09-09T16:09:33.434Z,100897.53
2022-09-09T16:14:34.518Z,100898.34
2022-09-09T16:19:41.729Z,100887.06
2022-09-09T16:24:39.260Z,100881.16
2022-09-09T16:29:36.061Z,100878.25
2022-09-09T16:34:34.055Z,100880.06
2022-09-09T16:39:30.862Z,100873.84
2022-09-09T16:44:28.276Z,100885.00
2022-09-09T16:49:26.169Z,100877.09
2022-09-09T16:54:27.461Z,100890.44
2022-09-09T17:11:00.640Z,100882.50
2022-09-09T17:16:05.922Z,100897.69
2022-09-09T17:21:04.879Z,100879.81
2022-09-09T17:26:01.630Z,100900.72
2022-09-09T17:31:06.648Z,100904.13
2022-09-09T17:36:09.493Z,100915.34
2022-09-09T17:41:32.687Z,100902.72
2022-09-09T17:46:35.662Z,100899.34
2022-09-09T17:51:34.150Z,100910.19
2022-09-09T17:56:32.068Z,100909.69
2022-09-09T18:01:48.792Z,100919.81
2022-09-09T18:06:49.437Z,100927.25
2022-09-09T18:11:47.077Z,100932.09
2022-09-09T18:16:44.212Z,100925.09
2022-09-09T18:21:41.782Z,100931.84
2022-09-09T18:26:46.376Z,100933.94
2022-09-09T18:31:43.218Z,100929.69
2022-09-09T18:36:41.924Z,100925.94
2022-09-09T18:41:39.608Z,100946.69
2022-09-09T18:46:42.274Z,100955.16
2022-09-09T18:51:42.242Z,100958.19
2022-09-09T18:56:39.370Z,100960.88
2022-09-09T19:01:36.096Z,100952.94
2022-09-09T19:06:34.243Z,100951.38
2022-09-09T19:11:31.036Z,100949.47
2022-09-09T19:16:28.984Z,100926.09
2022-09-09T19:21:45.841Z,100936.19
2022-09-09T19:26:43.491Z,100925.59
2022-09-09T19:31:41.539Z,100925.38
2022-09-09T19:36:46.733Z,100920.84
2022-09-09T19:41:44.149Z,100915.94
2022-09-09T19:46:42.308Z,100901.06
2022-09-09T19:51:38.950Z,100910.16
2022-09-09T19:56:37.119Z,100915.06
2022-09-09T20:01:39.918Z,100900.09
2022-09-09T20:06:39.940Z,100912.19
2022-09-09T20:11:37.899Z,100914.19
2022-09-09T20:16:35.533Z,100903.56
2022-09-09T20:21:38.802Z,100896.59
2022-09-09T20:26:37.893Z,100897.63
2022-09-09T20:31:48.965Z,100900.09
2022-09-09T20:36:49.770Z,100894.75
2022-09-09T20:41:48.203Z,100920.63
2022-09-09T20:47:00.317Z,100922.84
2022-09-09T20:52:03.543Z,100921.66
2022-09-09T20:57:03.928Z,100923.34
2022-09-09T21:02:02.931Z,100918.50
2022-09-09T21:07:26.892Z,100926.38
2022-09-09T21:12:23.831Z,100917.75
2022-09-09T21:17:27.949Z,100922.47
2022-09-09T21:22:30.592Z,100925.94
2022-09-09T21:27:35.348Z,100925.69
2022-09-09T21:32:41.947Z,100906.28
2022-09-09T21:37:38.884Z,100917.59
2022-09-09T21:42:35.694Z,100917.66
2022-09-09T21:47:33.084Z,100914.59
2022-09-09T21:52:32.329Z,100913.59
2022-09-09T21:57:29.053Z,100909.75
2022-09-09T22:02:27.576Z,100910.53
2022-09-09T22:07:25.153Z,100903.69
2022-09-09T22:12:21.965Z,100901.16
2022-09-09T22:17:23.944Z,100905.38
2022-09-09T22:22:20.781Z,100899.63
2022-09-09T22:27:18.349Z,100899.13
2022-09-09T22:32:15.271Z,100894.56
2022-09-09T22:37:12.433Z,100888.38
2022-09-09T22:42:09.172Z,100892.97
2022-09-09T22:47:06.653Z,100899.63
2022-09-09T22:52:03.349Z,100890.72
2022-09-09T22:57:00.124Z,100889.34
2022-09-09T23:01:58.190Z,100883.69
2022-09-09T23:06:55.603Z,100882.09
2022-09-09T23:11:53.388Z,100871.78
2022-09-09T23:16:52.011Z,100870.38
2022-09-09T23:21:50.249Z,100880.28
2022-09-09T23:26:47.766Z,100874.63
2022-09-09T23:31:45.355Z,100870.13
2022-09-09T23:36:42.287Z,100869.78
2022-09-09T23:41:39.704Z,100864.41
2022-09-09T23:46:37.173Z,100860.72
2022-09-09T23:51:34.861Z,100863.66
2022-09-09T23:56:32.324Z,100850.69
